Flight Track Log - Related Links

Times and Time Zones

All times are in EDT time to prevent confusion due to time zone crossing. See the SKW6330 flight status page for this flight to view local times or setup timezone preferences in your user account.

Time Position Orientation Groundspeed Altitude Reporting Facility
EDT Latitude Longitude Course Direction KTS MPH feet Rate Location/Type
Mon 09:24:58 AM 43.0842 -89.3764 270° West 188 216 2,800  Level Minneapolis Center
Mon 09:25:59 AM 43.0756 -89.4558 262° West 210 242 5,300 2,585 Climbing Minneapolis Center
Mon 09:27:01 AM 43.0772 -89.5419 272° West 223 257 8,100 2,634 Climbing Minneapolis Center
Mon 09:28:02 AM 43.0789 -89.6244 272° West 219 252 10,700 2,077 Climbing Minneapolis Center
Mon 09:29:11 AM 43.0800 -89.7344 271° West 253 291 12,600 1,955 Climbing Chicago Center
Mon 09:30:00 AM 43.1333 -90.1744 270° West  Level FlightAware Approximate
Mon 09:30:14 AM 43.0806 -89.8378 270° West 269 310 15,000  Level Chicago Center
Mon 09:31:16 AM 43.0842 -89.9525 273° West 277 319 17,000 1,645 Climbing Chicago Center
Mon 09:32:18 AM 43.0850 -90.0614 271° West 288 331 18,400 1,500 Climbing Chicago Center
Mon 09:33:20 AM 43.0867 -90.1772 271° West 305 351 20,100 1,452 Climbing Chicago Center
Mon 09:34:22 AM 43.0894 -90.2944 272° West 311 358 21,400 1,355 Climbing Chicago Center
Mon 09:35:24 AM 43.0897 -90.4133 270° West 315 362 22,900 1,403 Climbing Chicago Center
Mon 09:36:26 AM 43.0828 -90.5583 266° West 321 369 24,300 1,355 Climbing Chicago Center
Mon 09:37:28 AM 43.0778 -90.6775 267° West 318 366 25,700 1,210 Climbing Chicago Center
Mon 09:38:30 AM 43.0722 -90.7975 266° West 320 368 26,800 919 Climbing Chicago Center
Mon 09:39:19 AM 43.0683 -90.8950 267° West 322 371 27,400 655 Climbing Minneapolis Center
Mon 09:40:20 AM 43.0628 -91.0172 266° West 325 374 28,000 537 Climbing Minneapolis Center
Mon 09:41:22 AM 43.0567 -91.1708 267° West 338 389 28,500 537 Climbing Minneapolis Center
Mon 09:42:23 AM 43.0511 -91.3044 267° West 351 404 29,100 488 Climbing Minneapolis Center
Mon 09:43:25 AM 43.0458 -91.4397 267° West 359 413 29,500 488 Climbing Minneapolis Center
Mon 09:44:26 AM 43.0394 -91.5756 266° West 363 418 30,100 489 Climbing Minneapolis Center
Mon 09:45:40 AM 43.0300 -91.7406 266° West 369 425 30,600 485 Climbing Minneapolis Center
Mon 09:46:42 AM 43.0206 -91.9050 266° West 369 425 31,200 537 Climbing Minneapolis Center
Mon 09:47:43 AM 43.0131 -92.0417 266° West 367 422 31,700 390 Climbing Minneapolis Center
Mon 09:48:45 AM 43.0069 -92.1758 266° West 361 415 32,000 146 Climbing Minneapolis Center
Mon 09:49:46 AM 42.9997 -92.3158 266° West 372 428 32,000  Level Minneapolis Center
Mon 09:50:48 AM 42.9911 -92.4597 265° West 381 438 32,000  Level Minneapolis Center
Mon 09:51:49 AM 42.9833 -92.6003 266° West 377 434 32,000  Level Minneapolis Center
Mon 09:52:51 AM 42.9739 -92.7706 266° West 379 436 32,000  Level Minneapolis Center
Mon 09:53:52 AM 42.9650 -92.9122 265° West 378 435 32,000  Level Minneapolis Center
Mon 09:54:54 AM 42.9564 -93.0511 265° West 374 430 32,000  Level Minneapolis Center
Mon 09:55:55 AM 42.9478 -93.1900 265° West 371 427 32,000  Level Minneapolis Center
Mon 09:56:57 AM 42.9392 -93.3272 265° West 369 425 32,000  Level Minneapolis Center
Mon 09:57:58 AM 42.9303 -93.4631 265° West 365 420 32,000  Level Minneapolis Center
Mon 09:58:59 AM 42.9225 -93.6236 266° West 358 412 32,000  Level Minneapolis Center
Mon 10:00:01 AM 42.9142 -93.7578 265° West 358 412 32,000  Level Minneapolis Center
Mon 10:01:02 AM 42.9036 -93.8903 264° West 356 410 32,000  Level Minneapolis Center
Mon 10:02:04 AM 42.8947 -94.0236 265° West 356 410 32,000  Level Minneapolis Center
Mon 10:03:06 AM 42.8858 -94.1558 265° West 355 409 32,000  Level Minneapolis Center
Mon 10:04:07 AM 42.8744 -94.2864 263° West 351 404 32,000  Level Minneapolis Center
Mon 10:05:08 AM 42.8611 -94.4467 264° West 356 410 32,000  Level Minneapolis Center
Mon 10:06:10 AM 42.8517 -94.5797 265° West 356 410 32,000  Level Minneapolis Center
Mon 10:07:11 AM 42.8433 -94.7075 265° West 349 402 32,000  Level Minneapolis Center
Mon 10:08:13 AM 42.8331 -94.8425 264° West 353 406 32,000  Level Minneapolis Center
Mon 10:09:14 AM 42.8219 -94.9775 264° West 358 412 32,000  Level Minneapolis Center
Mon 10:10:16 AM 42.8125 -95.1131 265° West 359 413 32,000  Level Minneapolis Center
Mon 10:11:17 AM 42.8014 -95.2458 264° West 356 410 32,000  Level Minneapolis Center
Mon 10:12:19 AM 42.7881 -95.4086 264° West 358 412 32,000  Level Minneapolis Center
Mon 10:13:20 AM 42.7775 -95.5425 264° West 358 412 32,000  Level Minneapolis Center
Mon 10:14:22 AM 42.7661 -95.6772 263° West 358 412 32,000  Level Minneapolis Center
Mon 10:15:23 AM 42.7542 -95.8125 263° West 360 414 32,000  Level Minneapolis Center
Mon 10:16:25 AM 42.7433 -95.9475 264° West 360 414 32,000  Level Minneapolis Center
Mon 10:17:26 AM 42.7308 -96.0817 263° West 358 412 32,000  Level Minneapolis Center
Mon 10:18:28 AM 42.7197 -96.2161 264° West 358 412 32,000 49 Level Minneapolis Center
Mon 10:19:29 AM 42.7072 -96.3511 263° West 360 414 32,100  Climbing Minneapolis Center
Mon 10:20:31 AM 42.6928 -96.5083 263° West 358 412 32,000 -48 Descending Minneapolis Center
Mon 10:21:33 AM 42.6811 -96.6419 263° West 357 411 32,000  Level Minneapolis Center
Mon 10:22:34 AM 42.6672 -96.7761 262° West 359 413 32,000 146 Level Minneapolis Center
Mon 10:23:36 AM 42.6544 -96.9153 263° West 365 420 32,300 390 Climbing Minneapolis Center
Mon 10:24:37 AM 42.6406 -97.0539 262° West 371 427 32,800 488 Climbing Minneapolis Center
Mon 10:25:39 AM 42.6275 -97.1908 263° West 369 425 33,300 435 Climbing Minneapolis Center
Mon 10:26:41 AM 42.6144 -97.3267 263° West 365 420 33,700 341 Climbing Minneapolis Center
Mon 10:27:42 AM 42.5975 -97.4903 262° West 365 420 34,000 146 Climbing Minneapolis Center
Mon 10:28:44 AM 42.5831 -97.6289 262° West 370 426 34,000  Level Minneapolis Center
Mon 10:29:46 AM 42.5692 -97.7717 263° West 380 437 34,000  Level Minneapolis Center
Mon 10:30:48 AM 42.5528 -97.9269 262° West 389 448 34,000  Level Minneapolis Center
Mon 10:31:49 AM 42.5369 -98.0736 262° West 393 452 34,000  Level Minneapolis Center
Mon 10:32:51 AM 42.5222 -98.2197 262° West 392 451 34,000  Level Minneapolis Center
Mon 10:33:53 AM 42.5056 -98.3658 261° West 393 452 34,000  Level Minneapolis Center
Mon 10:34:55 AM 42.4903 -98.5089 262° West 387 445 34,000  Level Minneapolis Center
Mon 10:35:56 AM 42.4733 -98.6544 261° West 390 449 34,000  Level Minneapolis Center
Mon 10:36:58 AM 42.4144 -98.8114 243° Southwest 393 452 34,000  Level Minneapolis Center
Mon 10:38:00 AM 42.3581 -98.9383 239° Southwest 395 455 34,000  Level Minneapolis Center
Mon 10:39:02 AM 42.3008 -99.0639 238° Southwest 394 453 34,000  Level Minneapolis Center
Mon 10:40:03 AM 42.2442 -99.1903 239° Southwest 394 453 34,000  Level Minneapolis Center
Mon 10:41:05 AM 42.1875 -99.3164 239° Southwest 394 453 34,000  Level Minneapolis Center
Mon 10:42:08 AM 42.1294 -99.4419 238° Southwest 393 452 34,000  Level Denver Center
Mon 10:43:10 AM 42.0725 -99.5681 239° Southwest 394 453 34,000  Level Denver Center
Mon 10:44:12 AM 42.0056 -99.7153 239° Southwest 397 457 34,000  Level Denver Center
Mon 10:45:14 AM 41.9503 -99.8339 238° Southwest 394 453 34,000  Level Denver Center
Mon 10:46:16 AM 41.8875 -99.9756 239° Southwest 395 455 34,000  Level Denver Center
Mon 10:47:18 AM 41.8431 -100.1025 245° Southwest 394 453 34,000  Level Denver Center
Mon 10:48:20 AM 41.7906 -100.2500 245° Southwest 394 453 34,000  Level Denver Center
Mon 10:49:22 AM 41.7450 -100.3764 244° Southwest 394 453 34,000  Level Denver Center
Mon 10:50:24 AM 41.6931 -100.5231 245° Southwest 393 452 34,000  Level Denver Center
Mon 10:51:26 AM 41.6472 -100.6478 244° Southwest 392 451 34,000  Level Denver Center
Mon 10:52:28 AM 41.5942 -100.7944 244° Southwest 394 453 34,000  Level Denver Center
Mon 10:53:42 AM 41.5486 -100.9192 244° Southwest 394 453 34,000  Level Denver Center
Mon 10:54:44 AM 41.4878 -101.0864 244° Southwest 393 452 34,000  Level Denver Center
Mon 10:55:58 AM 41.4414 -101.2117 244° Southwest 394 453 34,000  Level Denver Center
Mon 10:57:01 AM 41.3789 -101.3781 243° Southwest 396 456 34,000  Level Denver Center
Mon 10:58:03 AM 41.3236 -101.5256 244° Southwest 400 460 34,000  Level Denver Center
Mon 10:59:17 AM 41.2758 -101.6522 243° Southwest 402 463 34,000  Level Denver Center
Mon 11:00:19 AM 41.2125 -101.8203 243° Southwest 401 461 34,000  Level Denver Center
Mon 11:01:21 AM 41.1564 -101.9681 243° Southwest 402 463 34,000  Level Denver Center
Mon 11:02:23 AM 41.1081 -102.0961 243° Southwest 406 467 34,000  Level Denver Center
Mon 11:03:25 AM 41.0589 -102.2239 243° Southwest 405 466 34,000  Level Denver Center
Mon 11:04:27 AM 41.0019 -102.3742 243° Southwest 410 472 34,000  Level Denver Center
Mon 11:05:29 AM 40.9525 -102.5017 243° Southwest 408 470 34,000  Level Denver Center
Mon 11:06:32 AM 40.8956 -102.6519 243° Southwest 410 472 34,000  Level Denver Center
Mon 11:07:34 AM 40.8456 -102.7794 243° Southwest 410 472 34,000  Level Denver Center
Mon 11:08:35 AM 40.7942 -102.9075 242° Southwest 412 474 34,000 -145 Level Denver Center
Mon 11:09:38 AM 40.7322 -103.0692 243° Southwest 412 474 33,700 -1,248 Descending Denver Center
Mon 11:10:40 AM 40.6767 -103.2083 242° Southwest 423 487 31,400 -2,274 Descending Denver Center
Mon 11:11:42 AM 40.6228 -103.3439 242° Southwest 417 480 29,000 -2,226 Descending Denver Center
Mon 11:12:44 AM 40.5719 -103.4736 243° Southwest 398 458 26,800 -1,984 Descending Denver Center
Mon 11:13:46 AM 40.5225 -103.5942 242° Southwest 375 432 24,900 -1,790 Descending Denver Center
Mon 11:14:48 AM 40.4764 -103.7064 242° Southwest 351 404 23,100 -1,984 Descending Denver Center
Mon 11:15:50 AM 40.4272 -103.8303 242° Southwest 339 390 20,800 -2,226 Descending Denver Center
Mon 11:16:52 AM 40.3847 -103.9447 244° Southwest 325 374 18,500 -1,984 Descending Denver Center
Mon 11:17:54 AM 40.3517 -104.0525 248° West 319 367 16,700 -1,500 Descending Denver Center
Mon 11:18:56 AM 40.3217 -104.1550 249° West 305 351 15,400 -1,171 Descending Denver Center
Mon 11:19:57 AM 40.2958 -104.2383 248° West 294 338 14,300 -968 Descending Denver Center
Mon 11:21:00 AM 40.2622 -104.3519 249° West 274 315 13,400 -1,152 Descending Denver Center
Mon 11:22:02 AM 40.2378 -104.4350 249° West 232 267 11,900 -1,161 Descending Denver Center
Mon 11:23:04 AM 40.2133 -104.5161 248° West 238 274 11,000 -677 Descending Denver Center
Mon 11:24:06 AM 40.1619 -104.5747 221° Southwest 240 276 10,500 -871 Descending Denver Center
Mon 11:25:08 AM 40.1003 -104.6119 205° Southwest 244 281 9,200 -1,103 Descending Denver Center
Mon 11:26:22 AM 40.0431 -104.6456 204° Southwest 226 260 8,000 -1,007 Descending Denver Center
Mon 11:27:25 AM 39.9806 -104.6794 203° Southwest 185 213 6,900 -912 Descending Denver Center
Mon 11:28:27 AM 39.9353 -104.6861 186° South 163 188 6,100 -726 Descending Denver Center
Mon 11:29:29 AM 39.8944 -104.6869 181° South 148 170 5,400 -677 Descending Denver Center
Mon 11:31:00 AM 39.8617 -104.6732 201° Southwest  Level Estimated
Mon 11:38:00 AM 39.8617 -104.6732 201° Southwest  Level Estimated
Mon 11:39:00 AM 39.8617 -104.6732 201° Southwest  Level Estimated
Mon 11:40:00 AM 39.8617 -104.6732 201° Southwest  Level Estimated

Login

Don't have an account? Register now (free) for customized features, flight alerts, and more!